Time;durP1;ratioP1;P1;durP2;ratioP2;P2;SDS_P1;SDS_P2;PMS_P1;PMS_P2;Temp;Humidity;BMP_temperature;BMP_pressure;BME280_temperature;BME280_humidity;BME280_pressure;Samples;Min_cycle;Max_cycle;Signal;HPM_P1;HPM_P2
2022/12/04 00:00:16;;;;;;;;;;;25.40;90.80;;;;;;5083932;28;19919;-73
2022/12/04 00:02:43;;;;;;;;;;;25.30;91.20;;;;;;5083298;28;19916;-72
2022/12/04 00:05:09;;;;;;;;;;;25.60;90.50;;;;;;5086350;28;19912;-71
2022/12/04 00:07:36;;;;;;;;;;;26.10;90.90;;;;;;5087082;28;20386;-72
2022/12/04 00:10:03;;;;;;;;;;;26.90;90.30;;;;;;5079824;28;20299;-72
2022/12/04 00:12:30;;;;;;;;;;;27.00;88.40;;;;;;5076590;28;20294;-72
2022/12/04 00:14:57;;;;;;;;;;;26.80;89.90;;;;;;5081086;28;19916;-74
2022/12/04 00:17:23;;;;;;;;;;;27.00;88.10;;;;;;5084968;28;20053;-70
2022/12/04 00:19:50;;;;;;;;;;;27.20;88.50;;;;;;5090165;28;19946;-70
2022/12/04 00:22:18;;;;;;;;;;;27.50;87.50;;;;;;5086587;28;19919;-70
2022/12/04 00:24:45;;;;;;;;;;;27.90;86.80;;;;;;5085175;28;20053;-71
2022/12/04 00:27:12;;;;;;;;;;;28.50;86.90;;;;;;5083339;28;19927;-71
2022/12/04 00:29:38;;;;;;;;;;;29.10;85.40;;;;;;5079441;28;19919;-69
2022/12/04 00:32:05;;;;;;;;;;;29.30;84.00;;;;;;5083230;28;19920;-72
2022/12/04 00:34:32;;;;;;;;;;;29.40;84.90;;;;;;5081038;28;20298;-71
2022/12/04 00:36:58;;;;;;;;;;;29.60;84.70;;;;;;5088226;28;19912;-72
2022/12/04 00:39:25;;;;;;;;;;;29.80;82.90;;;;;;5090062;28;19930;-73
2022/12/04 00:41:52;;;;;;;;;;;29.70;84.00;;;;;;5085270;28;19973;-74
2022/12/04 00:44:18;;;;;;;;;;;29.80;83.20;;;;;;5086769;28;19912;-73
2022/12/04 00:46:45;;;;;;;;;;;29.90;82.50;;;;;;5087776;28;19962;-82
2022/12/04 00:49:12;;;;;;;;;;;29.90;84.50;;;;;;5079044;28;19943;-81
2022/12/04 00:51:38;;;;;;;;;;;30.20;82.50;;;;;;5073023;28;19913;-72
2022/12/04 00:54:05;;;;;;;;;;;30.50;81.30;;;;;;5078956;28;19999;-71
2022/12/04 00:56:32;;;;;;;;;;;30.20;81.10;;;;;;5091258;28;19955;-72
2022/12/04 00:59:00;;;;;;;;;;;30.30;82.20;;;;;;5078891;28;19919;-72
2022/12/04 01:01:27;;;;;;;;;;;30.40;80.60;;;;;;5084808;28;20413;-72
2022/12/04 01:03:54;;;;;;;;;;;30.50;80.10;;;;;;5082906;28;20290;-73
2022/12/04 01:06:23;;;;;;;;;;;30.10;81.60;;;;;;5085706;28;19922;-75
2022/12/04 01:08:52;;;;;;;;;;;29.90;80.20;;;;;;5077373;28;20285;-73
2022/12/04 01:11:19;;;;;;;;;;;29.20;83.00;;;;;;5086767;28;19912;-74
2022/12/04 01:13:46;;;;;;;;;;;29.40;83.90;;;;;;5080544;28;19944;-74
2022/12/04 01:16:24;;;;;;;;;;;29.90;82.20;;;;;;5082412;28;19953;-71
2022/12/04 01:18:51;;;;;;;;;;;30.10;81.60;;;;;;5083049;28;19923;-74
2022/12/04 01:21:17;;;;;;;;;;;30.10;80.60;;;;;;5084723;28;19956;-70
2022/12/04 01:23:44;;;;;;;;;;;29.80;80.90;;;;;;5078741;28;19970;-71
2022/12/04 01:26:11;;;;;;;;;;;29.20;80.90;;;;;;5078551;28;19920;-72
2022/12/04 01:28:38;;;;;;;;;;;28.60;81.50;;;;;;5072037;28;19919;-73
2022/12/04 01:31:07;;;;;;;;;;;28.30;81.40;;;;;;5085564;28;20415;-72
2022/12/04 01:33:34;;;;;;;;;;;28.80;80.60;;;;;;5081040;28;19916;-73
2022/12/04 01:36:02;;;;;;;;;;;29.20;79.40;;;;;;5100683;28;20366;-73
2022/12/04 01:38:28;;;;;;;;;;;28.80;80.40;;;;;;5072571;28;19916;-70
2022/12/04 01:40:56;;;;;;;;;;;28.90;81.90;;;;;;5076613;28;19918;-72
2022/12/04 01:43:23;;;;;;;;;;;29.10;81.20;;;;;;5072690;28;19917;-73
2022/12/04 01:45:54;;;;;;;;;;;29.70;81.30;;;;;;5074720;28;19915;-72
2022/12/04 01:48:23;;;;;;;;;;;30.10;81.30;;;;;;5081252;28;19916;-74
2022/12/04 01:50:51;;;;;;;;;;;29.50;80.40;;;;;;5082794;28;19962;-74
2022/12/04 01:53:18;;;;;;;;;;;28.80;81.70;;;;;;5075774;28;20410;-76
2022/12/04 01:55:46;;;;;;;;;;;28.40;82.20;;;;;;5073856;28;20023;-72
2022/12/04 01:58:14;;;;;;;;;;;28.50;82.20;;;;;;5085515;28;20039;-75
2022/12/04 02:00:41;;;;;;;;;;;29.00;80.20;;;;;;5071887;28;19974;-75
2022/12/04 02:03:08;;;;;;;;;;;29.10;81.00;;;;;;5073824;28;19916;-73
2022/12/04 02:05:34;;;;;;;;;;;29.70;79.90;;;;;;5073193;28;19939;-73
2022/12/04 02:08:04;;;;;;;;;;;30.30;78.60;;;;;;5074585;28;19920;-73
2022/12/04 02:10:37;;;;;;;;;;;30.20;78.00;;;;;;5069976;28;19966;-73
2022/12/04 02:13:15;;;;;;;;;;;30.50;79.10;;;;;;5075117;28;19916;-75
2022/12/04 02:15:42;;;;;;;;;;;30.70;77.10;;;;;;5078289;28;19971;-74
2022/12/04 02:18:11;;;;;;;;;;;30.90;77.70;;;;;;5073825;28;20004;-75
2022/12/04 02:20:56;;;;;;;;;;;31.10;78.80;;;;;;5074159;28;20346;-75
2022/12/04 02:23:44;;;;;;;;;;;31.50;76.20;;;;;;5082663;28;20022;-75
2022/12/04 02:26:16;;;;;;;;;;;31.90;75.40;;;;;;5074109;28;19916;-73
2022/12/04 02:29:15;;;;;;;;;;;31.70;75.40;;;;;;5088354;28;20347;-75
2022/12/04 02:31:48;;;;;;;;;;;31.20;75.80;;;;;;5060142;28;19916;-75
2022/12/04 02:34:34;;;;;;;;;;;31.20;76.30;;;;;;5081200;28;20038;-74
2022/12/04 02:37:07;;;;;;;;;;;31.60;76.60;;;;;;5071894;28;19994;-75
2022/12/04 02:39:40;;;;;;;;;;;31.70;76.10;;;;;;5073367;28;20422;-70
2022/12/04 02:42:23;;;;;;;;;;;32.00;74.20;;;;;;5072425;28;19916;-74
2022/12/04 02:44:55;;;;;;;;;;;31.50;75.80;;;;;;5070597;28;19916;-72
2022/12/04 02:47:23;;;;;;;;;;;30.50;76.80;;;;;;5073262;28;19973;-74
2022/12/04 02:49:56;;;;;;;;;;;29.90;77.90;;;;;;5075153;28;19913;-74
2022/12/04 02:52:26;;;;;;;;;;;29.80;77.80;;;;;;5067121;28;19989;-74
2022/12/04 02:54:56;;;;;;;;;;;30.40;77.70;;;;;;5075907;28;19921;-75
2022/12/04 02:57:26;;;;;;;;;;;31.10;77.40;;;;;;5073120;28;20298;-73
2022/12/04 02:59:55;;;;;;;;;;;31.80;76.60;;;;;;5072247;28;20703;-74
2022/12/04 03:02:22;;;;;;;;;;;32.20;76.70;;;;;;5070164;28;19939;-71
2022/12/04 03:04:50;;;;;;;;;;;32.30;74.80;;;;;;5076150;28;19916;-73
2022/12/04 03:07:24;;;;;;;;;;;32.50;74.50;;;;;;5069294;28;19920;-73
2022/12/04 03:09:53;;;;;;;;;;;32.30;74.20;;;;;;5070359;28;19912;-72
2022/12/04 03:12:23;;;;;;;;;;;31.60;74.60;;;;;;5073412;28;19955;-73
2022/12/04 03:15:16;;;;;;;;;;;31.50;74.70;;;;;;5074120;28;19920;-68
2022/12/04 03:17:47;;;;;;;;;;;31.50;75.80;;;;;;5070313;28;19920;-74
2022/12/04 03:20:14;;;;;;;;;;;31.60;76.60;;;;;;5069402;28;19974;-74
2022/12/04 03:22:43;;;;;;;;;;;31.40;76.90;;;;;;5074480;28;19921;-74
2022/12/04 03:25:10;;;;;;;;;;;31.20;76.00;;;;;;5076352;28;19916;-72
2022/12/04 03:27:37;;;;;;;;;;;30.90;75.20;;;;;;5073255;28;20679;-72
2022/12/04 03:30:08;;;;;;;;;;;30.80;75.40;;;;;;5080259;28;20378;-73
2022/12/04 03:33:01;;;;;;;;;;;31.00;75.30;;;;;;5082285;28;19916;-72
2022/12/04 03:35:45;;;;;;;;;;;30.90;76.00;;;;;;5071679;28;20074;-73
2022/12/04 03:38:18;;;;;;;;;;;30.50;76.10;;;;;;5072530;28;20682;-72
2022/12/04 03:40:55;;;;;;;;;;;29.90;77.00;;;;;;5079938;28;19988;-73
2022/12/04 03:43:35;;;;;;;;;;;30.00;76.10;;;;;;5075602;28;19958;-71
2022/12/04 03:46:09;;;;;;;;;;;30.20;76.40;;;;;;5075985;28;19931;-72
2022/12/04 03:48:41;;;;;;;;;;;30.40;76.00;;;;;;5074231;28;19927;-69
2022/12/04 03:51:17;;;;;;;;;;;30.70;75.90;;;;;;5075755;28;20036;-71
2022/12/04 03:53:55;;;;;;;;;;;30.80;75.10;;;;;;5075532;28;19981;-72
2022/12/04 03:56:27;;;;;;;;;;;30.80;75.10;;;;;;5066226;28;19924;-72
2022/12/04 03:58:57;;;;;;;;;;;31.10;76.10;;;;;;5074453;28;19920;-73
2022/12/04 04:01:27;;;;;;;;;;;31.20;74.70;;;;;;5083068;28;19927;-72
2022/12/04 04:03:55;;;;;;;;;;;31.30;74.80;;;;;;5080411;28;19942;-73
2022/12/04 04:06:24;;;;;;;;;;;31.60;74.70;;;;;;5072270;28;19955;-71
2022/12/04 04:08:53;;;;;;;;;;;31.30;73.50;;;;;;5076977;28;19916;-72
2022/12/04 04:11:26;;;;;;;;;;;31.10;74.30;;;;;;5074762;28;20018;-72
2022/12/04 04:25:04;;;;;;;;;;;31.60;73.30;;;;;;5081686;28;19918;-72
2022/12/04 04:27:31;;;;;;;;;;;31.70;72.70;;;;;;5076124;28;19959;-73
2022/12/04 04:29:58;;;;;;;;;;;31.90;73.30;;;;;;5087144;28;19915;-73
2022/12/04 04:32:50;;;;;;;;;;;32.20;75.00;;;;;;5089521;28;19920;-71
2022/12/04 04:35:17;;;;;;;;;;;32.20;72.20;;;;;;5082028;28;19923;-72
2022/12/04 04:38:02;;;;;;;;;;;31.80;73.00;;;;;;5087848;28;20078;-73
2022/12/04 04:40:37;;;;;;;;;;;31.50;72.70;;;;;;5087885;28;19916;-73
2022/12/04 04:43:04;;;;;;;;;;;31.30;72.30;;;;;;5073276;28;19920;-74
2022/12/04 04:45:40;;;;;;;;;;;31.10;72.60;;;;;;5077263;28;20016;-74
2022/12/04 04:48:07;;;;;;;;;;;31.20;72.30;;;;;;5087777;28;19912;-73
2022/12/04 04:50:34;;;;;;;;;;;31.20;73.80;;;;;;5083181;28;19919;-73
2022/12/04 04:53:02;;;;;;;;;;;31.20;73.30;;;;;;5082555;28;19993;-75
2022/12/04 04:55:33;;;;;;;;;;;31.30;74.00;;;;;;5072288;28;19983;-74
2022/12/04 04:58:10;;;;;;;;;;;31.10;73.10;;;;;;5075296;28;20460;-73
2022/12/04 05:00:37;;;;;;;;;;;30.80;72.90;;;;;;5087794;28;19915;-71
2022/12/04 05:03:04;;;;;;;;;;;30.80;73.80;;;;;;5082163;28;19928;-73
2022/12/04 05:05:30;;;;;;;;;;;30.80;73.00;;;;;;5083551;28;19993;-74
2022/12/04 05:07:57;;;;;;;;;;;31.10;74.20;;;;;;5087327;28;19951;-73
2022/12/04 05:10:24;;;;;;;;;;;31.30;73.30;;;;;;5092593;28;19908;-76
2022/12/04 05:12:50;;;;;;;;;;;31.30;73.00;;;;;;5076532;28;20039;-73
2022/12/04 05:15:17;;;;;;;;;;;31.10;72.30;;;;;;5072476;28;19922;-72
2022/12/04 05:17:44;;;;;;;;;;;31.20;76.40;;;;;;5074711;28;20333;-73
2022/12/04 05:20:10;;;;;;;;;;;31.30;77.80;;;;;;5084710;28;19912;-74
2022/12/04 05:22:37;;;;;;;;;;;31.20;76.60;;;;;;5080020;28;20011;-74
2022/12/04 05:25:04;;;;;;;;;;;31.20;74.60;;;;;;5077625;28;20487;-73
2022/12/04 05:27:31;;;;;;;;;;;31.30;74.90;;;;;;5080976;28;19923;-73
2022/12/04 05:29:59;;;;;;;;;;;31.30;77.10;;;;;;5085116;28;20041;-73
2022/12/04 05:32:27;;;;;;;;;;;31.40;78.00;;;;;;5082618;28;20037;-74
2022/12/04 05:34:54;;;;;;;;;;;31.20;75.30;;;;;;5082363;28;19955;-72
2022/12/04 05:37:21;;;;;;;;;;;30.80;75.10;;;;;;5082908;28;19969;-73
2022/12/04 05:39:48;;;;;;;;;;;30.30;77.10;;;;;;5078458;28;20227;-73
2022/12/04 05:42:15;;;;;;;;;;;29.90;79.80;;;;;;5087767;28;19912;-72
2022/12/04 05:44:41;;;;;;;;;;;29.80;80.30;;;;;;5070762;28;19952;-73
2022/12/04 05:47:08;;;;;;;;;;;29.60;80.60;;;;;;5081305;28;19927;-72
2022/12/04 05:49:35;;;;;;;;;;;29.60;81.10;;;;;;5087518;28;19957;-74
2022/12/04 05:52:02;;;;;;;;;;;29.40;81.50;;;;;;5081959;28;20278;-74
2022/12/04 05:54:29;;;;;;;;;;;28.70;82.00;;;;;;5095779;28;19919;-73
2022/12/04 05:56:55;;;;;;;;;;;28.20;83.60;;;;;;5086722;28;20002;-72
2022/12/04 05:59:22;;;;;;;;;;;28.20;83.70;;;;;;5086025;28;19912;-73
2022/12/04 06:01:49;;;;;;;;;;;28.20;83.70;;;;;;5080900;28;19924;-72
2022/12/04 06:04:16;;;;;;;;;;;28.20;83.90;;;;;;5080299;28;19916;-73
2022/12/04 06:06:42;;;;;;;;;;;28.00;84.30;;;;;;5079372;28;20420;-73
2022/12/04 06:09:10;;;;;;;;;;;27.80;84.80;;;;;;5083682;28;20393;-72
2022/12/04 06:11:38;;;;;;;;;;;27.60;84.80;;;;;;5081423;28;20428;-73
2022/12/04 06:14:06;;;;;;;;;;;27.40;85.50;;;;;;5089434;28;19918;-73
2022/12/04 06:16:34;;;;;;;;;;;27.40;86.10;;;;;;5084638;28;19924;-73
2022/12/04 06:19:03;;;;;;;;;;;27.60;85.60;;;;;;5077341;28;19939;-72
2022/12/04 06:21:31;;;;;;;;;;;27.60;85.60;;;;;;5070284;28;19960;-72
2022/12/04 06:23:58;;;;;;;;;;;27.50;85.90;;;;;;5078275;28;19916;-73
2022/12/04 06:26:25;;;;;;;;;;;27.40;85.80;;;;;;5075395;28;19912;-73
2022/12/04 06:28:53;;;;;;;;;;;27.30;85.90;;;;;;5074778;28;19916;-73
2022/12/04 06:31:20;;;;;;;;;;;27.20;86.20;;;;;;5080341;28;19912;-73
2022/12/04 06:33:46;;;;;;;;;;;27.20;86.60;;;;;;5086448;28;19991;-75
2022/12/04 06:36:14;;;;;;;;;;;27.30;86.10;;;;;;5079866;28;19924;-74
2022/12/04 06:38:41;;;;;;;;;;;27.10;86.50;;;;;;5079070;28;19920;-72
2022/12/04 06:41:10;;;;;;;;;;;27.00;86.60;;;;;;5078596;28;20430;-71
2022/12/04 06:43:37;;;;;;;;;;;27.00;86.50;;;;;;5076337;28;19966;-73
2022/12/04 06:46:09;;;;;;;;;;;26.90;86.70;;;;;;5077068;28;20603;-73
2022/12/04 06:48:36;;;;;;;;;;;26.70;86.80;;;;;;5081199;28;21711;-73
2022/12/04 06:51:07;;;;;;;;;;;26.50;87.40;;;;;;5075004;28;20039;-72
2022/12/04 06:53:34;;;;;;;;;;;26.40;87.90;;;;;;5079290;28;19920;-73
2022/12/04 06:56:03;;;;;;;;;;;26.50;87.80;;;;;;5077876;28;19928;-73
2022/12/04 06:58:29;;;;;;;;;;;26.60;87.80;;;;;;5080433;28;19927;-72
2022/12/04 07:00:56;;;;;;;;;;;26.40;87.90;;;;;;5084305;28;19969;-73
2022/12/04 07:03:24;;;;;;;;;;;26.30;87.70;;;;;;5085319;28;19938;-74
2022/12/04 07:05:51;;;;;;;;;;;26.20;88.10;;;;;;5079151;28;19970;-73
2022/12/04 07:08:18;;;;;;;;;;;26.20;87.80;;;;;;5075691;28;19917;-73
2022/12/04 07:10:44;;;;;;;;;;;26.10;87.30;;;;;;5082836;28;20362;-74
2022/12/04 07:13:11;;;;;;;;;;;26.20;87.90;;;;;;5083529;28;20362;-72
2022/12/04 07:15:38;;;;;;;;;;;26.10;87.70;;;;;;5089592;28;19956;-74
2022/12/04 07:18:04;;;;;;;;;;;25.90;87.90;;;;;;5075349;28;20289;-73
2022/12/04 07:20:38;;;;;;;;;;;25.80;88.30;;;;;;5080387;28;20382;-73
2022/12/04 07:23:05;;;;;;;;;;;25.70;88.20;;;;;;5079847;28;19947;-73
2022/12/04 07:25:31;;;;;;;;;;;25.60;88.60;;;;;;5089197;28;20020;-75
2022/12/04 07:27:58;;;;;;;;;;;25.30;88.80;;;;;;5088583;28;20048;-73
2022/12/04 07:30:25;;;;;;;;;;;25.20;89.50;;;;;;5080560;28;19958;-73
2022/12/04 07:32:51;;;;;;;;;;;25.20;89.80;;;;;;5084766;28;19999;-74
2022/12/04 07:35:18;;;;;;;;;;;25.10;90.00;;;;;;5086599;28;19975;-73
2022/12/04 07:37:45;;;;;;;;;;;25.00;90.00;;;;;;5080112;28;20006;-73
2022/12/04 07:40:12;;;;;;;;;;;24.90;90.30;;;;;;5082445;28;19920;-73
2022/12/04 07:42:38;;;;;;;;;;;25.00;90.40;;;;;;5088216;28;19955;-73
2022/12/04 07:45:05;;;;;;;;;;;24.90;90.40;;;;;;5075218;28;19920;-73
2022/12/04 07:47:34;;;;;;;;;;;24.90;90.60;;;;;;5080924;28;19954;-73
2022/12/04 07:50:00;;;;;;;;;;;24.80;90.50;;;;;;5075492;28;19955;-73
2022/12/04 07:52:27;;;;;;;;;;;24.70;90.70;;;;;;5080846;28;19927;-72
2022/12/04 07:54:54;;;;;;;;;;;24.50;91.00;;;;;;5078317;28;19970;-71
2022/12/04 07:57:20;;;;;;;;;;;24.40;91.10;;;;;;5076732;28;19916;-72
2022/12/04 07:59:47;;;;;;;;;;;24.30;91.20;;;;;;5075721;28;19913;-71
2022/12/04 08:02:14;;;;;;;;;;;24.30;91.20;;;;;;5083642;28;20329;-72
2022/12/04 08:04:41;;;;;;;;;;;24.30;91.30;;;;;;5073332;28;19927;-71
2022/12/04 08:07:10;;;;;;;;;;;24.20;91.40;;;;;;5082626;28;19912;-72
2022/12/04 08:09:37;;;;;;;;;;;24.10;91.60;;;;;;5093446;28;20015;-72
2022/12/04 08:12:04;;;;;;;;;;;24.00;91.70;;;;;;5086219;28;19920;-73
2022/12/04 08:14:31;;;;;;;;;;;23.90;91.90;;;;;;5082469;28;20412;-72
2022/12/04 08:16:58;;;;;;;;;;;23.80;92.10;;;;;;5077336;28;19928;-72
2022/12/04 08:19:24;;;;;;;;;;;23.70;92.30;;;;;;5072645;28;19920;-72
2022/12/04 08:21:53;;;;;;;;;;;23.60;92.20;;;;;;5074096;28;20039;-74
2022/12/04 08:24:19;;;;;;;;;;;23.60;92.20;;;;;;5092146;28;20271;-73
2022/12/04 08:26:46;;;;;;;;;;;23.50;92.30;;;;;;5074650;28;20382;-73
2022/12/04 08:29:13;;;;;;;;;;;23.30;92.50;;;;;;5085865;28;19912;-74
2022/12/04 08:31:39;;;;;;;;;;;23.20;92.70;;;;;;5079287;28;19960;-73
2022/12/04 08:34:07;;;;;;;;;;;23.10;92.90;;;;;;5087971;28;19916;-72
2022/12/04 08:36:34;;;;;;;;;;;23.10;93.00;;;;;;5081839;28;20397;-73
2022/12/04 08:39:00;;;;;;;;;;;23.00;93.10;;;;;;5080392;28;19928;-73
2022/12/04 08:41:27;;;;;;;;;;;22.90;93.30;;;;;;5072244;28;20254;-72
2022/12/04 08:43:55;;;;;;;;;;;22.80;93.40;;;;;;5078452;28;20011;-72
2022/12/04 08:46:22;;;;;;;;;;;22.70;93.60;;;;;;5081567;28;19916;-72
2022/12/04 08:48:49;;;;;;;;;;;22.60;93.60;;;;;;5092318;28;19908;-73
2022/12/04 08:51:18;;;;;;;;;;;22.60;93.50;;;;;;5072983;28;19924;-73
2022/12/04 08:53:45;;;;;;;;;;;22.50;93.50;;;;;;5077161;28;19920;-75
2022/12/04 08:56:11;;;;;;;;;;;22.40;93.50;;;;;;5085189;28;20416;-75
2022/12/04 08:58:38;;;;;;;;;;;22.40;93.60;;;;;;5079843;28;19958;-75
2022/12/04 09:01:05;;;;;;;;;;;22.30;93.70;;;;;;5088231;28;19916;-73
2022/12/04 09:03:32;;;;;;;;;;;22.20;93.80;;;;;;5090508;28;19938;-74
2022/12/04 09:05:59;;;;;;;;;;;22.20;94.00;;;;;;5090397;28;19916;-72
2022/12/04 09:08:26;;;;;;;;;;;22.10;94.10;;;;;;5092023;28;19912;-74
2022/12/04 09:10:57;;;;;;;;;;;22.00;94.30;;;;;;5090562;28;20286;-72
2022/12/04 09:13:24;;;;;;;;;;;22.00;94.50;;;;;;5083026;28;19916;-72
2022/12/04 09:15:50;;;;;;;;;;;21.90;94.80;;;;;;5077546;28;19920;-73
2022/12/04 09:18:17;;;;;;;;;;;21.90;95.00;;;;;;5079286;28;19912;-72
2022/12/04 09:20:44;;;;;;;;;;;21.80;95.20;;;;;;5070206;28;19909;-73
2022/12/04 09:23:10;;;;;;;;;;;21.80;95.40;;;;;;5081558;28;20294;-73
2022/12/04 09:25:37;;;;;;;;;;;21.70;95.60;;;;;;5090996;28;20152;-72
2022/12/04 09:28:04;;;;;;;;;;;21.60;95.80;;;;;;5073479;28;19916;-72
2022/12/04 09:30:30;;;;;;;;;;;21.60;95.90;;;;;;5077966;28;19912;-73
2022/12/04 09:32:57;;;;;;;;;;;21.50;96.10;;;;;;5080362;28;19924;-71
2022/12/04 09:35:24;;;;;;;;;;;21.50;96.30;;;;;;5089936;28;19955;-72
2022/12/04 09:37:50;;;;;;;;;;;21.50;95.90;;;;;;5082516;28;19966;-73
2022/12/04 09:40:33;;;;;;;;;;;21.40;95.80;;;;;;5092245;28;20350;-72
2022/12/04 09:43:03;;;;;;;;;;;21.40;95.80;;;;;;5083934;28;19908;-72
2022/12/04 09:45:32;;;;;;;;;;;21.40;95.90;;;;;;5075503;28;19995;-71
2022/12/04 09:48:00;;;;;;;;;;;21.30;96.00;;;;;;5081675;28;19935;-71
2022/12/04 09:50:27;;;;;;;;;;;21.30;96.10;;;;;;5085330;28;20018;-71
2022/12/04 09:52:59;;;;;;;;;;;21.20;96.10;;;;;;5083982;28;19920;-70
2022/12/04 09:55:25;;;;;;;;;;;21.20;96.30;;;;;;5086139;28;20393;-71
2022/12/04 09:57:54;;;;;;;;;;;21.10;96.40;;;;;;5078030;28;19920;-72
2022/12/04 10:00:21;;;;;;;;;;;21.00;96.60;;;;;;5091540;28;20302;-72
2022/12/04 10:02:51;;;;;;;;;;;21.00;96.80;;;;;;5082319;28;20412;-73
2022/12/04 10:05:21;;;;;;;;;;;20.90;96.90;;;;;;5077207;28;19916;-72
2022/12/04 10:08:05;;;;;;;;;;;20.90;97.10;;;;;;5078998;28;20340;-71
2022/12/04 10:10:40;;;;;;;;;;;20.80;97.20;;;;;;5091688;28;19909;-71
2022/12/04 10:13:25;;;;;;;;;;;20.80;97.40;;;;;;5117496;27;19923;-73
2022/12/04 10:16:01;;;;;;;;;;;20.70;97.90;;;;;;5076025;28;19928;-71
2022/12/04 10:18:31;;;;;;;;;;;20.70;97.80;;;;;;5072161;28;19967;-72
2022/12/04 10:21:20;;;;;;;;;;;20.60;98.00;;;;;;5086123;28;19912;-71
2022/12/04 10:24:05;;;;;;;;;;;20.60;98.10;;;;;;5066518;28;19920;-72
2022/12/04 10:26:44;;;;;;;;;;;20.60;98.20;;;;;;5080055;28;19917;-71
2022/12/04 10:29:21;;;;;;;;;;;20.50;98.40;;;;;;5071090;28;19958;-72
2022/12/04 10:31:49;;;;;;;;;;;20.50;98.70;;;;;;5080684;28;19912;-72
2022/12/04 10:34:18;;;;;;;;;;;20.50;98.80;;;;;;5088917;28;20044;-70
2022/12/04 10:36:48;;;;;;;;;;;20.40;98.80;;;;;;5070102;28;19921;-72
2022/12/04 10:39:24;;;;;;;;;;;20.40;99.00;;;;;;5084667;28;19913;-72
2022/12/04 10:42:10;;;;;;;;;;;20.40;99.20;;;;;;5081916;28;19916;-71
2022/12/04 10:44:38;;;;;;;;;;;20.30;99.20;;;;;;5084613;28;19943;-71
2022/12/04 10:47:05;;;;;;;;;;;20.20;99.40;;;;;;5088374;28;20018;-71
2022/12/04 10:49:33;;;;;;;;;;;20.20;99.50;;;;;;5087577;28;20010;-71
2022/12/04 10:52:00;;;;;;;;;;;20.10;99.60;;;;;;5072665;28;19969;-70
2022/12/04 10:54:36;;;;;;;;;;;20.10;99.70;;;;;;5080312;28;19919;-72
2022/12/04 10:57:10;;;;;;;;;;;20.00;99.80;;;;;;5085516;28;20441;-72
2022/12/04 10:59:47;;;;;;;;;;;20.00;99.90;;;;;;5081465;28;19913;-71
2022/12/04 11:02:16;;;;;;;;;;;19.90;99.90;;;;;;5088535;28;19954;-73
2022/12/04 11:04:50;;;;;;;;;;;20.00;99.90;;;;;;5083333;28;20411;-72
2022/12/04 11:07:21;;;;;;;;;;;19.90;99.90;;;;;;5081569;28;20374;-72
2022/12/04 11:10:00;;;;;;;;;;;19.90;99.90;;;;;;5088802;28;19989;-73
2022/12/04 11:12:27;;;;;;;;;;;19.90;99.90;;;;;;5072779;28;22183;-73
2022/12/04 11:15:00;;;;;;;;;;;19.90;99.90;;;;;;5070888;28;19999;-73
2022/12/04 11:17:27;;;;;;;;;;;19.80;99.90;;;;;;5079767;28;19982;-72
2022/12/04 11:20:07;;;;;;;;;;;19.80;99.90;;;;;;5090993;28;20320;-73
2022/12/04 11:22:35;;;;;;;;;;;19.80;99.90;;;;;;5081962;28;20353;-72
2022/12/04 11:25:01;;;;;;;;;;;19.80;99.90;;;;;;5076512;28;19920;-74
2022/12/04 11:27:30;;;;;;;;;;;19.70;99.90;;;;;;5075148;28;19932;-74
2022/12/04 11:29:58;;;;;;;;;;;19.60;99.90;;;;;;5083109;28;19941;-72
2022/12/04 11:32:27;;;;;;;;;;;19.60;99.90;;;;;;5077990;28;20387;-72
2022/12/04 11:34:57;;;;;;;;;;;19.50;99.90;;;;;;5088074;28;20368;-73
2022/12/04 11:37:33;;;;;;;;;;;19.50;99.90;;;;;;5076430;28;19913;-73
2022/12/04 11:40:02;;;;;;;;;;;19.40;99.90;;;;;;5081979;28;19916;-73
2022/12/04 11:42:30;;;;;;;;;;;19.40;99.90;;;;;;5085209;28;20011;-73
2022/12/04 11:44:58;;;;;;;;;;;19.40;99.90;;;;;;5084597;28;19920;-73
2022/12/04 11:47:26;;;;;;;;;;;19.40;99.90;;;;;;5080963;28;20325;-73
2022/12/04 11:50:16;;;;;;;;;;;19.30;99.90;;;;;;5090879;28;19920;-73
2022/12/04 11:53:01;;;;;;;;;;;19.30;99.90;;;;;;5078801;28;20367;-73
2022/12/04 11:55:48;;;;;;;;;;;19.20;99.90;;;;;;5089105;28;19928;-74
2022/12/04 11:58:36;;;;;;;;;;;19.10;99.90;;;;;;5088249;28;19974;-74
2022/12/04 12:01:03;;;;;;;;;;;19.10;99.90;;;;;;5083946;28;20581;-73
2022/12/04 12:03:41;;;;;;;;;;;19.10;99.90;;;;;;5076483;28;19916;-71
2022/12/04 12:06:08;;;;;;;;;;;19.00;99.90;;;;;;5079699;28;19935;-72
2022/12/04 12:08:52;;;;;;;;;;;19.10;99.90;;;;;;5079987;28;20390;-72
2022/12/04 12:11:40;;;;;;;;;;;19.00;99.90;;;;;;5075289;28;19999;-71
2022/12/04 12:14:20;;;;;;;;;;;19.00;99.90;;;;;;5079281;28;19912;-72
2022/12/04 12:17:04;;;;;;;;;;;19.00;99.90;;;;;;5082094;28;19928;-71
2022/12/04 12:19:31;;;;;;;;;;;19.00;99.90;;;;;;5079212;28;19954;-72
2022/12/04 12:22:09;;;;;;;;;;;19.00;99.90;;;;;;5078735;28;19969;-72
2022/12/04 12:24:39;;;;;;;;;;;18.90;99.90;;;;;;5074249;28;20446;-73
2022/12/04 12:27:14;;;;;;;;;;;18.90;99.90;;;;;;5073891;28;19970;-72
2022/12/04 12:30:00;;;;;;;;;;;18.80;99.90;;;;;;5079968;28;19963;-71
2022/12/04 12:32:42;;;;;;;;;;;18.80;99.90;;;;;;5079366;28;19918;-71
2022/12/04 12:35:21;;;;;;;;;;;18.70;99.90;;;;;;5098861;28;19953;-73
2022/12/04 12:37:50;;;;;;;;;;;18.70;99.90;;;;;;5089270;28;19916;-75
2022/12/04 12:40:34;;;;;;;;;;;18.60;99.90;;;;;;5090371;28;19935;-73
2022/12/04 12:43:12;;;;;;;;;;;18.60;99.90;;;;;;5081457;28;20019;-73
2022/12/04 12:45:52;;;;;;;;;;;18.50;99.90;;;;;;5076080;28;20686;-71
2022/12/04 12:48:36;;;;;;;;;;;18.50;99.90;;;;;;5083510;28;19917;-71
2022/12/04 12:51:03;;;;;;;;;;;18.40;99.90;;;;;;5087593;28;20011;-72
2022/12/04 12:53:33;;;;;;;;;;;18.30;99.90;;;;;;5083818;28;19912;-72
2022/12/04 12:56:01;;;;;;;;;;;18.30;99.90;;;;;;5071505;28;20367;-74
2022/12/04 12:58:39;;;;;;;;;;;18.30;99.90;;;;;;5072564;28;19920;-74
2022/12/04 13:01:08;;;;;;;;;;;18.30;99.90;;;;;;5073160;28;19965;-72
2022/12/04 13:03:58;;;;;;;;;;;18.30;99.90;;;;;;5081515;28;19927;-73
2022/12/04 13:06:27;;;;;;;;;;;18.30;99.90;;;;;;5073392;28;20020;-73
2022/12/04 13:09:26;;;;;;;;;;;18.30;99.90;;;;;;5074147;28;19960;-72
2022/12/04 13:12:01;;;;;;;;;;;18.30;99.90;;;;;;5071898;28;20357;-72
2022/12/04 13:14:27;;;;;;;;;;;18.30;99.90;;;;;;5078681;28;19920;-72
2022/12/04 13:17:00;;;;;;;;;;;18.30;99.90;;;;;;5073999;28;19925;-72
2022/12/04 13:19:35;;;;;;;;;;;18.30;99.90;;;;;;5073090;28;19996;-73
2022/12/04 13:22:20;;;;;;;;;;;18.30;99.90;;;;;;5076836;28;20347;-73
2022/12/04 13:24:50;;;;;;;;;;;18.20;99.90;;;;;;5083364;28;19919;-73
2022/12/04 13:27:19;;;;;;;;;;;18.20;99.90;;;;;;5090706;28;19913;-73
2022/12/04 13:29:58;;;;;;;;;;;18.20;99.90;;;;;;5082561;28;20030;-72
2022/12/04 13:32:39;;;;;;;;;;;18.20;99.90;;;;;;5095712;28;20382;-71
2022/12/04 13:35:12;;;;;;;;;;;18.20;99.90;;;;;;5092456;28;19970;-72
2022/12/04 13:37:53;;;;;;;;;;;18.20;99.90;;;;;;5087479;28;19912;-72
2022/12/04 13:40:27;;;;;;;;;;;18.10;99.90;;;;;;5081210;28;19974;-73
2022/12/04 13:43:12;;;;;;;;;;;18.10;99.90;;;;;;5089036;28;19923;-72
2022/12/04 13:45:39;;;;;;;;;;;18.10;99.90;;;;;;5078102;28;19919;-72
2022/12/04 13:48:05;;;;;;;;;;;18.00;99.90;;;;;;5083045;28;19918;-72
2022/12/04 13:50:37;;;;;;;;;;;18.00;99.90;;;;;;5082494;28;19916;-72
2022/12/04 13:53:04;;;;;;;;;;;18.00;99.90;;;;;;5080585;28;19913;-73
2022/12/04 13:55:35;;;;;;;;;;;18.00;99.90;;;;;;5087702;28;19935;-72
2022/12/04 13:58:21;;;;;;;;;;;18.00;99.90;;;;;;5075770;28;20762;-73
2022/12/04 14:00:58;;;;;;;;;;;17.90;99.90;;;;;;5078168;28;19916;-72
2022/12/04 14:03:31;;;;;;;;;;;17.90;99.90;;;;;;5080882;28;19912;-74
2022/12/04 14:06:03;;;;;;;;;;;17.90;99.90;;;;;;5080842;28;20411;-73
2022/12/04 14:08:36;;;;;;;;;;;17.90;99.90;;;;;;5071597;28;20362;-73
2022/12/04 14:11:02;;;;;;;;;;;17.90;99.90;;;;;;5079260;28;20512;-73
2022/12/04 14:13:49;;;;;;;;;;;17.80;99.90;;;;;;5080781;28;19967;-72
2022/12/04 14:16:28;;;;;;;;;;;17.70;99.90;;;;;;5071636;28;19936;-72
2022/12/04 14:18:56;;;;;;;;;;;17.70;99.90;;;;;;5088645;28;19912;-72
2022/12/04 14:21:23;;;;;;;;;;;17.70;99.90;;;;;;5085101;28;19913;-72
2022/12/04 14:23:50;;;;;;;;;;;17.60;99.90;;;;;;5081461;28;20387;-72
2022/12/04 14:26:20;;;;;;;;;;;17.60;99.90;;;;;;5089939;28;19924;-72
2022/12/04 14:28:47;;;;;;;;;;;17.50;99.90;;;;;;5091356;28;19912;-73
2022/12/04 14:31:19;;;;;;;;;;;17.50;99.90;;;;;;5086080;28;20241;-73
2022/12/04 14:33:51;;;;;;;;;;;17.50;99.90;;;;;;5089221;28;20358;-73
2022/12/04 14:36:37;;;;;;;;;;;17.50;99.90;;;;;;5071583;28;19935;-72
2022/12/04 14:39:07;;;;;;;;;;;17.40;99.90;;;;;;5079021;28;19958;-72
2022/12/04 14:41:33;;;;;;;;;;;17.40;99.90;;;;;;5083400;28;20378;-73
2022/12/04 14:44:00;;;;;;;;;;;17.40;99.90;;;;;;5071604;28;19913;-73
2022/12/04 14:46:59;;;;;;;;;;;17.40;99.90;;;;;;5071313;28;19949;-76